createdAt,value
2023-02-06T00:01:32.415Z,65.30
2023-02-06T00:04:00.189Z,65.30
2023-02-06T00:06:29.208Z,65.40
2023-02-06T00:08:57.075Z,65.30
2023-02-06T00:11:25.391Z,65.30
2023-02-06T00:13:53.502Z,65.40
2023-02-06T00:16:23.001Z,65.30
2023-02-06T00:18:51.458Z,65.30
2023-02-06T00:21:21.815Z,65.30
2023-02-06T00:23:51.565Z,65.30
2023-02-06T00:26:19.553Z,65.40
2023-02-06T00:28:48.247Z,65.40
2023-02-06T00:31:16.533Z,65.30
2023-02-06T00:33:44.300Z,65.30
2023-02-06T00:36:12.325Z,65.30
2023-02-06T00:38:40.628Z,65.40
2023-02-06T00:41:09.663Z,65.30
2023-02-06T00:43:37.607Z,65.30
2023-02-06T00:46:05.875Z,65.40
2023-02-06T00:48:33.665Z,65.30
2023-02-06T00:51:01.390Z,66.20
2023-02-06T00:53:30.029Z,65.40
2023-02-06T00:55:59.250Z,65.30
2023-02-06T00:58:28.270Z,65.40
2023-02-06T01:00:56.170Z,65.40
2023-02-06T01:03:24.615Z,65.40
2023-02-06T01:05:52.335Z,65.40
2023-02-06T01:08:20.119Z,65.40
2023-02-06T01:10:47.876Z,65.40
2023-02-06T01:13:15.594Z,65.50
2023-02-06T01:15:44.843Z,65.40
2023-02-06T01:18:12.585Z,65.60
2023-02-06T01:20:41.747Z,65.50
2023-02-06T01:23:10.426Z,65.50
2023-02-06T01:25:38.435Z,65.50
2023-02-06T01:28:06.221Z,65.50
2023-02-06T01:30:33.981Z,65.60
2023-02-06T01:33:03.590Z,65.60
2023-02-06T01:35:31.313Z,65.50
2023-02-06T01:37:59.025Z,65.50
2023-02-06T01:40:26.774Z,65.60
2023-02-06T01:42:54.531Z,65.50
2023-02-06T01:45:41.948Z,65.60
2023-02-06T01:48:14.301Z,65.60
2023-02-06T01:50:44.741Z,65.50
2023-02-06T01:53:14.117Z,65.50
2023-02-06T01:55:44.888Z,65.60
2023-02-06T01:58:16.740Z,65.60
2023-02-06T02:00:44.964Z,65.60
2023-02-06T02:03:15.550Z,65.70
2023-02-06T02:05:46.233Z,65.60
2023-02-06T02:08:19.132Z,65.60
2023-02-06T02:10:47.091Z,65.60
2023-02-06T02:13:14.829Z,65.60
2023-02-06T02:15:49.550Z,65.70
2023-02-06T02:18:36.321Z,65.60
2023-02-06T02:21:32.701Z,65.60
2023-02-06T02:24:06.095Z,65.60
2023-02-06T02:27:07.047Z,65.60
2023-02-06T02:30:07.382Z,65.60
2023-02-06T02:33:08.802Z,66.40
2023-02-06T02:35:47.524Z,65.60
2023-02-06T02:38:29.956Z,65.60
2023-02-06T02:41:05.685Z,65.60
2023-02-06T02:43:43.396Z,65.60
2023-02-06T02:46:18.709Z,65.60
2023-02-06T02:48:50.038Z,65.60
2023-02-06T02:51:19.964Z,65.60
2023-02-06T02:53:47.892Z,65.60
2023-02-06T02:56:19.013Z,65.60
2023-02-06T02:58:52.746Z,65.60
2023-02-06T03:01:25.613Z,65.60
2023-02-06T03:03:56.704Z,65.60
2023-02-06T03:06:41.873Z,65.60
2023-02-06T03:09:21.467Z,65.60
2023-02-06T03:11:56.441Z,65.60
2023-02-06T03:14:32.730Z,65.60
2023-02-06T03:17:06.386Z,65.60
2023-02-06T03:19:38.520Z,65.60
2023-02-06T03:22:07.709Z,65.60
2023-02-06T03:24:38.803Z,65.60
2023-02-06T03:27:11.173Z,65.60
2023-02-06T03:29:41.359Z,65.60
2023-02-06T03:32:14.176Z,65.60
2023-02-06T03:34:48.709Z,65.60
2023-02-06T03:37:18.163Z,65.60
2023-02-06T03:39:45.990Z,65.60
2023-02-06T03:42:15.501Z,65.60
2023-02-06T03:44:48.214Z,65.60
2023-02-06T03:47:19.212Z,65.60
2023-02-06T03:49:48.856Z,65.60
2023-02-06T03:52:21.669Z,65.60
2023-02-06T03:54:52.488Z,65.60
2023-02-06T03:57:23.925Z,65.60
2023-02-06T03:59:52.079Z,65.60
2023-02-06T04:02:21.211Z,65.60
2023-02-06T04:04:49.021Z,65.60
2023-02-06T04:07:23.088Z,65.60
2023-02-06T04:09:50.980Z,65.60
2023-02-06T04:12:19.076Z,65.60
2023-02-06T04:14:47.025Z,65.60
2023-02-06T04:17:23.777Z,65.60
2023-02-06T04:19:59.295Z,65.60
2023-02-06T04:22:28.336Z,65.60
2023-02-06T04:24:56.022Z,65.70
2023-02-06T04:27:23.887Z,65.60
2023-02-06T04:29:51.613Z,65.70
2023-02-06T04:32:19.321Z,65.70
2023-02-06T04:34:47.029Z,65.60
2023-02-06T04:37:14.780Z,65.60
2023-02-06T04:39:43.906Z,65.60
2023-02-06T04:42:11.612Z,65.70
2023-02-06T04:44:39.317Z,65.60
2023-02-06T04:47:07.599Z,65.70
2023-02-06T04:49:35.277Z,65.70
2023-02-06T04:52:03.361Z,65.60
2023-02-06T04:54:32.678Z,65.60
2023-02-06T04:57:01.953Z,65.70
2023-02-06T04:59:29.825Z,65.70
2023-02-06T05:01:57.529Z,65.70
2023-02-06T05:04:25.289Z,65.60
2023-02-06T05:06:53.004Z,65.60
2023-02-06T05:09:20.723Z,65.60
2023-02-06T05:11:48.497Z,65.60
2023-02-06T05:14:17.515Z,65.60
2023-02-06T05:16:45.203Z,65.60
2023-02-06T05:19:12.910Z,65.50
2023-02-06T05:21:40.646Z,65.40
2023-02-06T05:24:08.560Z,65.40
2023-02-06T05:26:36.253Z,66.20
2023-02-06T05:29:04.194Z,65.40
2023-02-06T05:31:33.270Z,65.30
2023-02-06T05:34:01.033Z,65.40
2023-02-06T05:36:29.122Z,65.60
2023-02-06T05:38:56.830Z,66.10
2023-02-06T05:41:24.546Z,66.60
2023-02-06T05:43:52.277Z,66.80
2023-02-06T05:46:20.017Z,67.00
2023-02-06T05:48:49.082Z,67.00
2023-02-06T05:51:16.840Z,67.00
2023-02-06T05:53:44.597Z,67.00
2023-02-06T05:56:12.317Z,67.00
2023-02-06T05:58:40.025Z,67.00
2023-02-06T06:01:07.737Z,66.90
2023-02-06T06:03:35.459Z,66.90
2023-02-06T06:06:04.760Z,66.90
2023-02-06T06:08:32.559Z,66.90
2023-02-06T06:11:02.114Z,66.80
2023-02-06T06:13:30.126Z,66.80
2023-02-06T06:15:58.198Z,66.80
2023-02-06T06:18:25.917Z,66.70
2023-02-06T06:20:54.535Z,66.70
2023-02-06T06:23:23.851Z,66.60
2023-02-06T06:25:51.667Z,66.60
2023-02-06T06:28:19.576Z,66.50
2023-02-06T06:30:47.359Z,66.40
2023-02-06T06:33:16.352Z,66.40
2023-02-06T06:35:44.099Z,66.30
2023-02-06T06:38:11.830Z,66.20
2023-02-06T06:40:42.128Z,66.10
2023-02-06T06:43:09.841Z,66.00
2023-02-06T06:45:37.901Z,66.00
2023-02-06T06:48:05.914Z,65.90
2023-02-06T06:50:33.635Z,66.70
2023-02-06T06:53:01.932Z,65.80
2023-02-06T06:55:29.649Z,65.60
2023-02-06T06:57:58.672Z,65.60
2023-02-06T07:00:26.434Z,65.50
2023-02-06T07:02:54.218Z,65.40
2023-02-06T07:05:21.935Z,65.40
2023-02-06T07:07:49.673Z,65.30
2023-02-06T07:10:18.107Z,65.60
2023-02-06T07:12:45.842Z,65.20
2023-02-06T07:15:15.217Z,65.20
2023-02-06T07:17:42.901Z,65.10
2023-02-06T07:20:11.846Z,65.10
2023-02-06T07:22:39.616Z,65.60
2023-02-06T07:25:07.784Z,65.00
2023-02-06T07:27:35.618Z,65.00
2023-02-06T07:30:05.612Z,64.90
2023-02-06T07:32:37.233Z,64.90
2023-02-06T07:35:06.062Z,64.90
2023-02-06T07:37:33.844Z,64.90
2023-02-06T07:40:01.582Z,64.80
2023-02-06T07:42:29.280Z,64.80
2023-02-06T07:45:01.466Z,64.60
2023-02-06T07:47:29.162Z,64.60
2023-02-06T07:49:58.168Z,64.60
2023-02-06T07:52:25.980Z,64.70
2023-02-06T07:54:53.682Z,64.50
2023-02-06T07:57:21.400Z,64.60
2023-02-06T07:59:49.171Z,64.60
2023-02-06T08:02:16.889Z,64.50
2023-02-06T08:04:44.785Z,64.50
2023-02-06T08:07:15.035Z,64.50
2023-02-06T08:09:43.436Z,64.40
2023-02-06T08:12:12.020Z,64.40
2023-02-06T08:14:39.933Z,64.30
2023-02-06T08:17:07.843Z,64.70
2023-02-06T08:19:35.563Z,64.30
2023-02-06T08:22:03.291Z,64.30
2023-02-06T08:24:32.654Z,64.30
2023-02-06T08:27:00.488Z,64.30
2023-02-06T08:29:28.204Z,64.30
2023-02-06T08:31:55.946Z,64.20
2023-02-06T08:34:23.658Z,64.20
2023-02-06T08:36:51.333Z,64.20
2023-02-06T08:39:19.174Z,64.20
2023-02-06T08:41:48.248Z,64.10
2023-02-06T08:44:17.667Z,64.10
2023-02-06T08:46:47.608Z,64.00
2023-02-06T08:49:17.081Z,64.00
2023-02-06T08:51:45.626Z,64.00
2023-02-06T08:54:15.348Z,64.10
2023-02-06T08:56:43.341Z,64.00
2023-02-06T08:59:14.507Z,63.90
2023-02-06T09:01:45.266Z,63.90
2023-02-06T09:04:14.454Z,63.80
2023-02-06T09:06:44.443Z,63.90
2023-02-06T09:09:13.220Z,63.80
2023-02-06T09:11:41.430Z,63.80
2023-02-06T09:14:11.925Z,63.80
2023-02-06T09:16:41.043Z,63.90
2023-02-06T09:19:08.927Z,63.90
2023-02-06T09:21:37.421Z,63.90
2023-02-06T09:24:07.663Z,63.90
2023-02-06T09:26:44.863Z,63.90
2023-02-06T09:29:21.402Z,63.90
2023-02-06T09:31:50.471Z,63.90
2023-02-06T09:34:18.206Z,63.90
2023-02-06T09:36:45.954Z,63.90
2023-02-06T09:39:13.744Z,63.90
2023-02-06T09:41:44.456Z,63.90
2023-02-06T09:44:19.456Z,63.90
2023-02-06T09:46:52.207Z,63.90
2023-02-06T09:49:23.156Z,64.00
2023-02-06T09:52:11.057Z,64.10
2023-02-06T09:54:46.747Z,64.20
2023-02-06T09:57:22.295Z,64.30
2023-02-06T09:59:56.951Z,64.30
2023-02-06T10:02:40.076Z,64.40
2023-02-06T10:05:20.293Z,64.30
2023-02-06T10:07:59.970Z,64.30
2023-02-06T10:10:38.105Z,64.40
2023-02-06T10:13:14.020Z,64.30
2023-02-06T10:15:46.183Z,64.30
2023-02-06T10:18:22.171Z,65.10
2023-02-06T10:20:54.416Z,64.30
2023-02-06T10:23:30.142Z,64.30
2023-02-06T10:26:07.107Z,64.30
2023-02-06T10:28:36.139Z,64.30
2023-02-06T10:31:29.543Z,64.20
2023-02-06T10:34:14.385Z,64.30
2023-02-06T10:36:54.760Z,64.20
2023-02-06T10:39:39.078Z,64.20
2023-02-06T10:42:13.200Z,64.30
2023-02-06T10:44:51.234Z,64.30
2023-02-06T10:47:31.303Z,64.30
2023-02-06T10:50:04.615Z,64.30
2023-02-06T10:52:35.809Z,64.30
2023-02-06T10:55:13.807Z,64.30
2023-02-06T10:57:43.609Z,64.40
2023-02-06T11:00:18.313Z,64.50
2023-02-06T11:03:06.539Z,64.50
2023-02-06T11:05:37.400Z,64.50
2023-02-06T11:08:12.507Z,64.50
2023-02-06T11:10:41.237Z,64.50
2023-02-06T11:13:14.770Z,64.60
2023-02-06T11:15:48.989Z,64.50
2023-02-06T11:18:21.635Z,64.60
2023-02-06T11:20:53.196Z,64.60
2023-02-06T11:23:25.084Z,64.60
2023-02-06T11:26:03.921Z,64.70
2023-02-06T11:28:34.188Z,64.70
2023-02-06T11:31:03.974Z,64.80
2023-02-06T11:33:39.498Z,64.80
2023-02-06T11:36:24.163Z,64.90
2023-02-06T11:38:59.890Z,65.10
2023-02-06T11:41:28.451Z,65.30
2023-02-06T11:44:02.422Z,65.40
2023-02-06T11:46:32.359Z,66.00
2023-02-06T11:49:06.779Z,64.80
2023-02-06T11:51:51.299Z,64.60
2023-02-06T11:54:28.388Z,64.40
2023-02-06T11:57:03.170Z,64.30
2023-02-06T11:59:34.268Z,64.30
2023-02-06T12:02:05.628Z,64.20
2023-02-06T12:04:37.432Z,64.10
2023-02-06T12:07:14.771Z,64.00
2023-02-06T12:09:42.623Z,63.80
2023-02-06T12:12:17.638Z,63.50
2023-02-06T12:14:50.223Z,63.30
2023-02-06T12:17:26.183Z,63.00
2023-02-06T12:20:05.882Z,62.70
2023-02-06T12:22:40.121Z,62.30
2023-02-06T12:25:26.387Z,61.90
2023-02-06T12:27:57.821Z,61.80
2023-02-06T12:30:34.097Z,61.80
2023-02-06T12:33:08.181Z,61.80
2023-02-06T12:35:44.787Z,61.70
2023-02-06T12:38:22.162Z,61.60
2023-02-06T12:41:01.725Z,61.60
2023-02-06T12:43:30.772Z,61.80
2023-02-06T12:46:04.358Z,61.70
2023-02-06T12:48:39.743Z,61.70
2023-02-06T12:51:15.946Z,61.60
2023-02-06T12:53:50.006Z,61.70
2023-02-06T12:56:27.750Z,61.70
2023-02-06T12:59:06.659Z,61.70
2023-02-06T13:01:49.629Z,61.70
2023-02-06T13:04:20.069Z,62.60
2023-02-06T13:06:53.360Z,61.80
2023-02-06T13:09:26.784Z,61.80
2023-02-06T13:12:06.752Z,61.80
2023-02-06T13:14:35.545Z,61.80
2023-02-06T13:17:10.061Z,61.80
2023-02-06T13:20:02.460Z,62.70
2023-02-06T13:22:46.312Z,61.80
2023-02-06T13:25:54.217Z,61.80
2023-02-06T13:28:58.648Z,61.90
2023-02-06T13:31:31.845Z,61.90
2023-02-06T13:34:02.708Z,61.90
2023-02-06T13:36:50.022Z,62.00
2023-02-06T13:39:38.664Z,62.00
2023-02-06T13:42:33.936Z,61.90
2023-02-06T13:45:05.420Z,62.00
2023-02-06T13:48:08.247Z,62.00
2023-02-06T13:50:52.549Z,61.90
2023-02-06T13:53:46.999Z,62.90
2023-02-06T13:56:35.367Z,62.00
2023-02-06T13:59:10.741Z,62.10
2023-02-06T14:01:41.271Z,62.10
2023-02-06T14:04:16.139Z,62.10
2023-02-06T14:07:07.598Z,62.10
2023-02-06T14:10:17.039Z,62.10
2023-02-06T14:13:04.121Z,62.10
2023-02-06T14:15:37.200Z,62.10
2023-02-06T14:18:25.041Z,62.20
2023-02-06T14:21:01.541Z,62.10
2023-02-06T14:23:40.382Z,62.10
2023-02-06T14:26:21.727Z,62.10
2023-02-06T14:28:58.738Z,62.00
2023-02-06T14:31:46.429Z,62.10
2023-02-06T14:34:39.481Z,62.10
2023-02-06T14:37:29.032Z,62.10
2023-02-06T14:40:04.185Z,62.10
2023-02-06T14:42:37.216Z,62.10
2023-02-06T14:45:08.768Z,62.10
2023-02-06T14:47:42.339Z,62.10
2023-02-06T14:50:19.482Z,62.10
2023-02-06T14:52:50.699Z,62.10
2023-02-06T14:55:33.219Z,62.20
2023-02-06T14:58:01.613Z,62.10
2023-02-06T15:00:29.971Z,62.10
2023-02-06T15:03:06.090Z,62.10
2023-02-06T15:05:35.822Z,62.10
2023-02-06T15:08:06.346Z,62.20
2023-02-06T15:10:36.160Z,62.10
2023-02-06T15:13:04.703Z,62.20
2023-02-06T15:15:34.534Z,62.20
2023-02-06T15:18:04.434Z,62.30
2023-02-06T15:20:37.700Z,62.30
2023-02-06T15:23:17.746Z,62.40
2023-02-06T15:25:59.965Z,62.40
2023-02-06T15:28:30.582Z,62.70
2023-02-06T15:31:00.659Z,62.70
2023-02-06T15:33:30.896Z,62.70
2023-02-06T15:36:01.731Z,63.40
2023-02-06T15:38:32.891Z,62.60
2023-02-06T15:41:04.351Z,62.60
2023-02-06T15:43:33.928Z,62.60
2023-02-06T15:46:05.340Z,62.70
2023-02-06T15:48:36.467Z,62.60
2023-02-06T15:51:19.859Z,62.60
2023-02-06T15:53:48.692Z,62.70
2023-02-06T15:56:25.591Z,62.70
2023-02-06T15:58:58.705Z,62.70
2023-02-06T16:01:28.424Z,62.60
2023-02-06T16:04:00.459Z,62.60
2023-02-06T16:06:29.644Z,62.60
2023-02-06T16:08:59.893Z,62.60
2023-02-06T16:11:49.177Z,62.60
2023-02-06T16:14:21.934Z,62.60
2023-02-06T16:17:02.199Z,62.40
2023-02-06T16:19:46.474Z,62.50
2023-02-06T16:22:19.443Z,62.50
2023-02-06T16:24:48.231Z,62.60
2023-02-06T16:27:22.009Z,62.60
2023-02-06T16:29:52.572Z,62.60
2023-02-06T16:32:24.696Z,62.70
2023-02-06T16:34:53.530Z,62.70
2023-02-06T16:37:24.854Z,62.80
2023-02-06T16:39:53.025Z,62.80
2023-02-06T16:42:22.818Z,62.70
2023-02-06T16:44:52.525Z,62.70
2023-02-06T16:47:21.913Z,62.70
2023-02-06T16:49:50.897Z,62.80
2023-02-06T16:52:25.396Z,62.80
2023-02-06T16:54:53.734Z,62.80
2023-02-06T16:57:26.876Z,62.80
2023-02-06T16:59:54.588Z,62.90
2023-02-06T17:02:22.352Z,62.90
2023-02-06T17:04:50.430Z,62.90
2023-02-06T17:07:21.058Z,63.70
2023-02-06T17:09:50.765Z,62.90
2023-02-06T17:12:20.836Z,62.90
2023-02-06T17:14:49.291Z,62.70
2023-02-06T17:17:19.149Z,62.70
2023-02-06T17:19:47.731Z,62.70
2023-02-06T17:22:16.082Z,62.70
2023-02-06T17:24:44.307Z,62.80
2023-02-06T17:27:16.525Z,62.70
2023-02-06T17:29:47.251Z,62.70
2023-02-06T17:32:16.044Z,62.70
2023-02-06T17:34:43.744Z,62.80
2023-02-06T17:37:20.396Z,62.80
2023-02-06T17:39:49.573Z,62.70
2023-02-06T17:42:18.686Z,62.80
2023-02-06T17:44:46.442Z,62.80
2023-02-06T17:47:14.166Z,62.80
2023-02-06T17:49:41.876Z,62.90
2023-02-06T17:52:09.581Z,62.90
2023-02-06T17:54:37.288Z,62.90
2023-02-06T17:57:05.140Z,62.90
2023-02-06T17:59:34.200Z,62.90
2023-02-06T18:02:02.135Z,63.10
2023-02-06T18:04:30.016Z,63.00
2023-02-06T18:06:57.701Z,63.10
2023-02-06T18:09:25.507Z,63.10
2023-02-06T18:11:53.280Z,63.10
2023-02-06T18:14:21.548Z,63.10
2023-02-06T18:16:50.600Z,63.20
2023-02-06T18:19:23.842Z,63.30
2023-02-06T18:21:51.636Z,63.30
2023-02-06T18:24:19.368Z,63.40
2023-02-06T18:26:47.316Z,63.40
2023-02-06T18:29:15.046Z,63.40
2023-02-06T18:31:42.817Z,63.50
2023-02-06T18:34:12.540Z,64.20
2023-02-06T18:36:40.336Z,63.40
2023-02-06T18:39:08.672Z,63.50
2023-02-06T18:41:54.253Z,63.50
2023-02-06T18:44:21.993Z,63.50
2023-02-06T18:46:49.834Z,63.50
2023-02-06T18:49:19.010Z,64.30
2023-02-06T18:51:46.702Z,63.50
2023-02-06T18:54:14.430Z,63.50
2023-02-06T18:56:42.158Z,63.40
2023-02-06T18:59:09.879Z,63.40
2023-02-06T19:01:37.790Z,63.40
2023-02-06T19:04:06.188Z,63.40
2023-02-06T19:06:36.500Z,63.40
2023-02-06T19:09:06.901Z,63.30
2023-02-06T19:11:35.161Z,63.40
2023-02-06T19:14:03.123Z,63.40
2023-02-06T19:16:32.384Z,63.40
2023-02-06T19:19:01.423Z,63.40
2023-02-06T19:21:29.172Z,63.40
2023-02-06T19:24:00.624Z,63.40
2023-02-06T19:26:29.348Z,63.40
2023-02-06T19:28:57.576Z,63.40
2023-02-06T19:31:25.596Z,63.40
2023-02-06T19:33:55.123Z,63.40
2023-02-06T19:36:24.527Z,63.40
2023-02-06T19:38:55.252Z,63.50
2023-02-06T19:41:25.843Z,63.50
2023-02-06T19:43:55.258Z,63.50
2023-02-06T19:46:25.247Z,63.50
2023-02-06T19:48:53.569Z,63.60
2023-02-06T19:51:23.057Z,63.50
2023-02-06T19:53:51.676Z,63.50
2023-02-06T19:56:21.732Z,64.00
2023-02-06T19:58:54.660Z,64.70
2023-02-06T20:01:23.379Z,65.30
2023-02-06T20:03:51.477Z,65.70
2023-02-06T20:06:20.084Z,66.20
2023-02-06T20:08:47.800Z,66.50
2023-02-06T20:11:17.529Z,66.80
2023-02-06T20:13:45.984Z,67.00
2023-02-06T20:16:20.593Z,67.20
2023-02-06T20:18:48.509Z,67.40
2023-02-06T20:21:22.031Z,67.50
2023-02-06T20:23:50.708Z,67.60
2023-02-06T20:26:19.674Z,67.60
2023-02-06T20:28:47.900Z,67.70
2023-02-06T20:31:17.845Z,67.70
2023-02-06T20:33:46.434Z,67.70
2023-02-06T20:36:20.554Z,67.70
2023-02-06T20:38:49.691Z,67.60
2023-02-06T20:41:17.776Z,67.60
2023-02-06T20:43:47.980Z,67.50
2023-02-06T20:46:17.895Z,67.30
2023-02-06T20:48:46.978Z,67.30
2023-02-06T20:51:15.516Z,67.30
2023-02-06T20:53:43.298Z,67.10
2023-02-06T20:56:14.403Z,67.00
2023-02-06T20:58:42.258Z,67.00
2023-02-06T21:01:14.291Z,66.90
2023-02-06T21:03:43.809Z,66.90
2023-02-06T21:06:12.101Z,66.80
2023-02-06T21:08:39.915Z,66.80
2023-02-06T21:11:08.054Z,66.80
2023-02-06T21:13:35.917Z,66.70
2023-02-06T21:16:03.689Z,66.70
2023-02-06T21:18:32.569Z,66.70
2023-02-06T21:21:09.210Z,66.70
2023-02-06T21:23:37.421Z,66.70
2023-02-06T21:26:06.492Z,66.70
2023-02-06T21:28:35.797Z,66.50
2023-02-06T21:31:06.162Z,66.50
2023-02-06T21:33:34.689Z,66.50
2023-02-06T21:36:06.652Z,66.50
2023-02-06T21:38:35.246Z,66.50
2023-02-06T21:41:06.012Z,66.50
2023-02-06T21:43:34.737Z,66.50
2023-02-06T21:46:03.085Z,66.40
2023-02-06T21:48:31.018Z,66.50
2023-02-06T21:50:59.085Z,66.50
2023-02-06T21:53:28.099Z,66.40
2023-02-06T21:55:55.830Z,66.40
2023-02-06T21:58:23.536Z,66.40
2023-02-06T22:00:51.659Z,66.40
2023-02-06T22:03:19.416Z,66.40
2023-02-06T22:05:47.346Z,66.40
2023-02-06T22:08:15.056Z,66.30
2023-02-06T22:10:44.109Z,66.30
2023-02-06T22:13:11.816Z,66.30
2023-02-06T22:15:40.051Z,66.30
2023-02-06T22:18:10.093Z,66.30
2023-02-06T22:20:37.861Z,66.20
2023-02-06T22:23:05.557Z,66.20
2023-02-06T22:25:33.265Z,66.20
2023-02-06T22:28:02.326Z,66.20
2023-02-06T22:30:30.084Z,66.20
2023-02-06T22:32:57.800Z,66.20
2023-02-06T22:35:25.515Z,66.10
2023-02-06T22:37:53.228Z,66.10
2023-02-06T22:40:21.178Z,66.10
2023-02-06T22:42:48.868Z,66.20
2023-02-06T22:45:17.938Z,66.00
2023-02-06T22:47:45.636Z,66.00
2023-02-06T22:50:13.400Z,66.00
2023-02-06T22:53:04.090Z,66.00
2023-02-06T22:55:51.812Z,66.00
2023-02-06T22:58:19.529Z,65.90
2023-02-06T23:00:48.653Z,65.90
2023-02-06T23:03:16.528Z,65.90
2023-02-06T23:05:44.230Z,65.90
2023-02-06T23:08:11.933Z,65.90
2023-02-06T23:10:39.966Z,65.90
2023-02-06T23:13:07.657Z,65.90
2023-02-06T23:15:40.952Z,65.90
2023-02-06T23:18:10.206Z,65.90
2023-02-06T23:20:38.437Z,65.90
2023-02-06T23:23:06.407Z,65.90
2023-02-06T23:25:34.313Z,65.90
2023-02-06T23:28:02.033Z,65.90
2023-02-06T23:30:29.818Z,65.90
2023-02-06T23:32:57.548Z,65.80
2023-02-06T23:35:26.661Z,65.90
2023-02-06T23:37:54.341Z,65.90
2023-02-06T23:40:22.084Z,65.90
2023-02-06T23:42:49.782Z,65.80
2023-02-06T23:45:17.613Z,65.80
2023-02-06T23:47:45.325Z,65.90
2023-02-06T23:50:13.304Z,65.80
2023-02-06T23:52:42.353Z,65.70
2023-02-06T23:55:10.423Z,65.80
2023-02-06T23:57:39.094Z,65.70
